Stanwood, WA (98292)

5:51 AM PDT on October 21, 2014 (GMT -0700)
Juniper Beach | Change Station
CLOSE
Current Station
Personal Weather Station
Location: Camano Island, WA
Elevation: 13 ft
Nearby Weather Stations

Elev 13 ft 48.23 °N, 122.40 °W | Updated 6 seconds ago

Overcast
Overcast
56.1 °F
Feels Like 56.1 °F
N
12.0
Wind Variable Wind from SE
Gusts 21.0 mph

Today
High -- | Low -- °F
--% Chance of Precip.
Yesterday
High -- | Low -- °F
Precip. -- in
7:38 AM 6:09 PM
Waning Crescent, 6% visible
Pressure 29.84 in
Visibility 10.0 miles
Clouds Mostly Cloudy 1500 ft
Overcast 8000 ft
Dew Point 54 °F
Humidity 91%
Rainfall 0.09 in
Snow Depth Not available.
UV 0 out of 12
Pollen .40 out of 12
PM2.5 Good
Flu Activity Sporadic
METAR KAWO 211235Z AUTO 15010KT 10SM BKN015 OVC080 12/09 A2984 RMK AO1

More Conditions Fewer Conditions

Pressure 29.84 in
Visibility 10.0 miles
Clouds Mostly Cloudy 1500 ft
Overcast 8000 ft
Dew Point 54 °F
Humidity 91%
Rainfall 0.09 in
Snow Depth Not available.
UV 0 out of 12
Pollen .40 out of 12
PM2.5 Good
Flu Activity Sporadic
METAR KAWO 211235Z AUTO 15010KT 10SM BKN015 OVC080 12/09 A2984 RMK AO1

More Conditions Fewer Conditions

10-Day Weather Forecast

Almanac

Astronomy

Oct. 21, 2014 Rise Set
Actual Time 7:38 AM PDT 6:09 PM PDT
Civil Twilight 7:06 AM PDT 6:40 PM PDT
Nautical Twilight 6:30 AM PDT 7:17 PM PDT
Astronomical Twilight 5:54 AM PDT 7:53 PM PDT
Moon 5:17 AM PDT 5:13 PM PDT
Length of Visible Light 11h 34m
Length of Day
10h 31m
Tomorrow will be 3m 20s shorter.
Waning Crescent, 6% of the Moon is Illuminated
Today
Waning Crescent
Oct 23
New
Oct 30
First Quarter
Nov 6
Full
Nov 14
Last Quarter

Today's Extremes

State Highs State Lows

Community

WunderPhotos

Upload Photos

1,763,649 photos uploaded!

Nearby

Air Quality

  Air Quality AQ Index Pollutant
Yesterday Good
PM2.5
Current Good
PM2.5
Tuesday Good
PM2.5
Wednesday Good
PM2.5
Thursday Good
PM2.5
Friday Good
PM2.5
Saturday Good
PM2.5

Snow Depth

Station Depth Elevation
Dungeness 0 in 4100 ft
Elbow Lake 0 in 3200 ft
Alpine Meadows 0 in 3500 ft
Mf Nooksack 1 in 4980 ft
Skookum Creek 0 in 3920 ft

Earthquake Activity

City Distance Mag. Time & Date
No recent earthquake activity has been reported nearby.
Minimum magnitude displayed is 2.5.

Coastal Water Temperatures

Place Temperature
Port Townsend, WA 52.0 °F
Friday Harbor, WA 51.1 °F
Port Angeles, WA 57.0 °F

Nearby Weather Stations